createdAt,value
2019-05-19T00:02:07.774Z,68.30
2019-05-19T00:06:14.458Z,68.20
2019-05-19T00:10:23.643Z,68.10
2019-05-19T00:14:31.085Z,68.30
2019-05-19T00:18:39.749Z,68.20
2019-05-19T00:22:50.033Z,68.60
2019-05-19T00:26:59.551Z,68.60
2019-05-19T00:31:06.568Z,68.80
2019-05-19T00:35:13.368Z,69.20
2019-05-19T00:39:20.156Z,69.30
2019-05-19T00:43:26.858Z,69.50
2019-05-19T00:47:34.495Z,69.70
2019-05-19T00:51:41.470Z,69.70
2019-05-19T00:55:54.910Z,69.90
2019-05-19T01:00:02.240Z,69.90
2019-05-19T01:04:09.943Z,70.10
2019-05-19T01:08:16.723Z,70.20
2019-05-19T01:12:23.581Z,71.00
2019-05-19T01:16:30.424Z,70.50
2019-05-19T01:20:37.558Z,70.50
2019-05-19T01:24:44.606Z,70.50
2019-05-19T01:28:51.403Z,70.70
2019-05-19T01:32:58.112Z,71.00
2019-05-19T01:37:04.949Z,70.90
2019-05-19T01:41:12.000Z,71.10
2019-05-19T01:45:18.704Z,71.20
2019-05-19T01:49:25.433Z,71.20
2019-05-19T01:53:32.556Z,71.30
2019-05-19T01:57:39.613Z,71.20
2019-05-19T02:01:46.356Z,71.30
2019-05-19T02:05:53.539Z,71.50
2019-05-19T02:10:00.590Z,71.40
2019-05-19T02:14:07.476Z,71.50
2019-05-19T02:18:15.035Z,71.60
2019-05-19T02:22:21.796Z,71.60
2019-05-19T02:26:28.591Z,71.60
2019-05-19T02:30:36.850Z,71.80
2019-05-19T02:34:43.816Z,71.90
2019-05-19T02:38:50.810Z,71.80
2019-05-19T02:42:57.562Z,71.80
2019-05-19T02:47:04.835Z,71.90
2019-05-19T02:51:12.296Z,71.90
2019-05-19T02:55:18.994Z,72.00
2019-05-19T02:59:26.208Z,72.10
2019-05-19T03:03:33.236Z,72.10
2019-05-19T03:07:40.768Z,72.00
2019-05-19T03:11:47.539Z,72.30
2019-05-19T03:15:54.265Z,72.20
2019-05-19T03:20:01.073Z,72.40
2019-05-19T03:24:07.950Z,72.30
2019-05-19T03:28:14.967Z,72.40
2019-05-19T03:32:38.297Z,72.40
2019-05-19T03:36:44.999Z,72.30
2019-05-19T03:40:52.752Z,72.30
2019-05-19T03:44:59.709Z,72.30
2019-05-19T03:49:06.503Z,73.00
2019-05-19T03:53:13.225Z,72.40
2019-05-19T03:57:20.007Z,72.40
2019-05-19T04:01:26.971Z,72.50
2019-05-19T04:05:35.235Z,72.60
2019-05-19T04:09:41.944Z,72.60
2019-05-19T04:13:48.694Z,72.60
2019-05-19T04:17:55.378Z,72.60
2019-05-19T04:22:02.155Z,72.60
2019-05-19T04:26:09.153Z,72.50
2019-05-19T04:30:15.855Z,72.50
2019-05-19T04:34:22.670Z,72.50
2019-05-19T04:38:29.363Z,72.40
2019-05-19T04:42:36.088Z,72.20
2019-05-19T04:46:42.733Z,72.10
2019-05-19T04:50:50.508Z,72.20
2019-05-19T04:54:57.217Z,72.00
2019-05-19T04:59:03.978Z,71.80
2019-05-19T05:03:10.661Z,71.80
2019-05-19T05:07:17.409Z,71.90
2019-05-19T05:11:24.256Z,71.90
2019-05-19T05:15:31.059Z,71.50
2019-05-19T05:19:38.524Z,71.60
2019-05-19T05:23:45.232Z,71.50
2019-05-19T05:27:51.961Z,71.60
2019-05-19T05:31:59.090Z,71.30
2019-05-19T05:36:05.816Z,71.50
2019-05-19T05:40:12.795Z,71.60
2019-05-19T05:44:19.485Z,71.50
2019-05-19T05:48:26.230Z,71.60
2019-05-19T05:52:38.591Z,71.60
2019-05-19T05:56:41.336Z,71.90
2019-05-19T06:00:48.304Z,70.40
2019-05-19T06:04:55.456Z,72.20
2019-05-19T06:09:02.358Z,80.00
2019-05-19T06:13:09.352Z,79.10
2019-05-19T06:17:17.504Z,82.70
2019-05-19T06:21:24.985Z,72.30
2019-05-19T06:25:31.797Z,79.70
2019-05-19T06:29:38.523Z,78.70
2019-05-19T06:33:45.278Z,71.00
2019-05-19T06:37:52.036Z,64.70
2019-05-19T06:41:59.073Z,68.60
2019-05-19T06:46:08.497Z,69.80
2019-05-19T06:50:15.384Z,71.40
2019-05-19T06:54:22.068Z,69.10
2019-05-19T06:58:28.790Z,70.60
2019-05-19T07:02:35.719Z,74.80
2019-05-19T07:06:42.514Z,74.00
2019-05-19T07:10:49.217Z,70.40
2019-05-19T07:14:56.225Z,72.50
2019-05-19T07:19:03.013Z,71.70
2019-05-19T07:23:10.120Z,68.00
2019-05-19T07:27:16.903Z,73.10
2019-05-19T07:31:23.645Z,71.80
2019-05-19T07:35:30.343Z,71.00
2019-05-19T07:39:37.088Z,67.40
2019-05-19T07:43:43.921Z,65.90
2019-05-19T07:47:50.663Z,71.00
2019-05-19T07:51:57.469Z,72.80
2019-05-19T07:56:04.184Z,71.90
2019-05-19T08:00:10.980Z,67.70
2019-05-19T08:04:18.262Z,66.60
2019-05-19T08:08:24.996Z,69.90
2019-05-19T08:12:31.893Z,71.30
2019-05-19T08:16:38.629Z,67.00
2019-05-19T08:20:45.895Z,72.10
2019-05-19T08:24:52.557Z,69.80
2019-05-19T08:28:59.289Z,66.60
2019-05-19T08:33:06.039Z,70.00
2019-05-19T08:37:12.767Z,72.10
2019-05-19T08:41:19.384Z,68.60
2019-05-19T08:45:26.185Z,69.10
2019-05-19T08:49:32.974Z,65.10
2019-05-19T08:53:39.703Z,65.70
2019-05-19T08:57:46.507Z,64.60
2019-05-19T09:01:53.231Z,64.50
2019-05-19T09:06:00.034Z,68.20
2019-05-19T09:10:08.053Z,66.20
2019-05-19T09:14:14.801Z,69.50
2019-05-19T09:18:21.594Z,67.90
2019-05-19T09:22:28.314Z,67.60
2019-05-19T09:26:34.968Z,65.60
2019-05-19T09:30:41.792Z,65.80
2019-05-19T09:34:49.876Z,64.80
2019-05-19T09:38:56.629Z,64.50
2019-05-19T09:43:03.934Z,63.70
2019-05-19T09:47:10.996Z,64.20
2019-05-19T09:51:18.777Z,65.10
2019-05-19T09:55:25.607Z,65.50
2019-05-19T09:59:32.425Z,65.30
2019-05-19T10:03:39.173Z,64.00
2019-05-19T10:07:46.333Z,65.20
2019-05-19T10:12:04.484Z,64.00
2019-05-19T10:16:11.266Z,65.20
2019-05-19T10:20:18.101Z,69.80
2019-05-19T10:24:25.101Z,70.80
2019-05-19T10:28:31.839Z,71.50
2019-05-19T10:32:38.555Z,72.30
2019-05-19T10:36:45.209Z,67.60
2019-05-19T10:40:51.850Z,69.20
2019-05-19T10:44:58.720Z,71.00
2019-05-19T10:49:05.591Z,66.60
2019-05-19T10:53:12.790Z,65.60
2019-05-19T10:57:19.510Z,68.50
2019-05-19T11:01:26.361Z,71.20
2019-05-19T11:05:33.138Z,68.90
2019-05-19T11:09:40.016Z,65.30
2019-05-19T11:13:49.576Z,68.70
2019-05-19T11:17:57.493Z,65.50
2019-05-19T11:22:05.266Z,64.60
2019-05-19T11:26:14.398Z,62.80
2019-05-19T11:30:21.256Z,62.40
2019-05-19T11:34:28.839Z,62.60
2019-05-19T11:38:35.578Z,60.50
2019-05-19T11:42:46.769Z,62.10
2019-05-19T11:46:52.285Z,59.50
2019-05-19T11:50:59.064Z,60.00
2019-05-19T11:55:05.944Z,60.00
2019-05-19T11:59:12.965Z,60.00
2019-05-19T12:03:19.686Z,59.30
2019-05-19T12:07:26.451Z,57.70
2019-05-19T12:11:33.190Z,58.20
2019-05-19T12:15:39.992Z,57.60
2019-05-19T12:19:46.695Z,59.00
2019-05-19T12:23:53.382Z,59.60
2019-05-19T12:28:01.454Z,60.90
2019-05-19T12:32:08.219Z,58.90
2019-05-19T12:36:15.061Z,60.10
2019-05-19T12:40:22.691Z,60.40
2019-05-19T12:44:29.692Z,59.70
2019-05-19T12:48:36.640Z,59.70
2019-05-19T12:52:43.466Z,62.20
2019-05-19T12:56:50.218Z,59.90
2019-05-19T13:00:56.981Z,59.60
2019-05-19T13:05:05.835Z,54.80
2019-05-19T13:09:12.683Z,58.00
2019-05-19T13:13:19.472Z,55.40
2019-05-19T13:17:26.243Z,54.90
2019-05-19T13:21:32.899Z,54.70
2019-05-19T13:25:39.786Z,54.30
2019-05-19T13:29:46.788Z,57.70
2019-05-19T13:33:53.589Z,51.60
2019-05-19T13:38:00.272Z,52.20
2019-05-19T13:42:07.063Z,54.20
2019-05-19T13:46:14.197Z,56.10
2019-05-19T13:50:21.001Z,56.10
2019-05-19T13:54:27.848Z,57.40
2019-05-19T13:58:34.549Z,60.00
2019-05-19T14:02:41.891Z,59.70
2019-05-19T14:06:48.682Z,58.20
2019-05-19T14:10:55.668Z,58.60
2019-05-19T14:15:04.266Z,56.70
2019-05-19T14:19:11.190Z,58.40
2019-05-19T14:23:17.915Z,62.80
2019-05-19T14:27:30.433Z,59.50
2019-05-19T14:31:33.215Z,61.10
2019-05-19T14:35:41.293Z,58.00
2019-05-19T14:39:47.964Z,55.60
2019-05-19T14:43:54.702Z,57.20
2019-05-19T14:48:02.700Z,57.30
2019-05-19T14:52:10.403Z,59.70
2019-05-19T14:56:17.288Z,63.40
2019-05-19T15:00:25.428Z,62.00
2019-05-19T15:04:32.813Z,65.60
2019-05-19T15:08:39.674Z,66.50
2019-05-19T15:12:46.364Z,67.10
2019-05-19T15:16:53.122Z,67.50
2019-05-19T15:21:01.624Z,63.30
2019-05-19T15:25:08.422Z,67.10
2019-05-19T15:29:15.183Z,70.40
2019-05-19T15:33:21.870Z,67.30
2019-05-19T15:37:28.626Z,65.60
2019-05-19T15:41:35.285Z,64.30
2019-05-19T15:45:42.823Z,62.50
2019-05-19T15:49:49.592Z,64.30
2019-05-19T15:53:56.541Z,57.40
2019-05-19T15:58:15.444Z,59.40
2019-05-19T16:02:11.820Z,56.40
2019-05-19T16:06:18.539Z,60.30
2019-05-19T16:10:25.339Z,63.50
2019-05-19T16:14:32.190Z,66.50
2019-05-19T16:18:39.866Z,67.90
2019-05-19T16:22:46.708Z,68.60
2019-05-19T16:26:53.420Z,66.00
2019-05-19T16:31:01.957Z,69.70
2019-05-19T16:35:08.784Z,67.20
2019-05-19T16:39:16.480Z,67.00
2019-05-19T16:43:23.472Z,66.70
2019-05-19T16:47:30.241Z,67.20
2019-05-19T16:51:37.294Z,66.80
2019-05-19T16:55:44.152Z,66.60
2019-05-19T16:59:51.502Z,64.90
2019-05-19T17:03:58.311Z,63.70
2019-05-19T17:08:05.163Z,61.60
2019-05-19T17:16:46.323Z,58.50
2019-05-19T17:20:53.128Z,59.50
2019-05-19T17:29:30.373Z,63.20
2019-05-19T17:33:38.137Z,65.90
2019-05-19T17:37:46.483Z,63.50
2019-05-19T17:41:53.317Z,64.70
2019-05-19T17:46:00.238Z,63.80
2019-05-19T17:50:07.059Z,66.10
2019-05-19T17:54:13.951Z,67.50
2019-05-19T17:58:21.704Z,72.80
2019-05-19T18:02:28.940Z,70.20
2019-05-19T18:06:35.920Z,72.30
2019-05-19T18:10:43.789Z,73.40
2019-05-19T18:14:52.532Z,71.00
2019-05-19T18:18:59.321Z,73.80
2019-05-19T18:23:06.187Z,72.40
2019-05-19T18:27:13.057Z,72.60
2019-05-19T18:31:20.276Z,71.30
2019-05-19T18:35:27.104Z,73.80
2019-05-19T18:39:34.344Z,69.50
2019-05-19T18:43:41.262Z,72.70
2019-05-19T18:47:51.410Z,68.30
2019-05-19T18:51:59.829Z,64.20
2019-05-19T18:56:06.967Z,60.80
2019-05-19T19:00:15.712Z,59.90
2019-05-19T19:04:24.635Z,59.80
2019-05-19T19:08:32.048Z,59.80
2019-05-19T19:12:39.081Z,60.00
2019-05-19T19:16:47.526Z,60.10
2019-05-19T19:20:54.414Z,60.60
2019-05-19T19:25:03.330Z,60.90
2019-05-19T19:29:10.180Z,61.10
2019-05-19T19:33:17.007Z,61.60
2019-05-19T19:37:23.984Z,62.00
2019-05-19T19:41:33.339Z,62.20
2019-05-19T19:45:43.002Z,62.50
2019-05-19T19:49:55.835Z,62.90
2019-05-19T19:54:03.681Z,63.30
2019-05-19T19:58:10.527Z,63.60
2019-05-19T20:02:19.588Z,64.10
2019-05-19T20:06:26.753Z,64.20
2019-05-19T20:10:35.148Z,65.00
2019-05-19T20:14:42.171Z,65.80
2019-05-19T20:18:48.922Z,69.10
2019-05-19T20:22:56.856Z,68.00
2019-05-19T20:27:03.691Z,66.60
2019-05-19T20:31:10.589Z,65.80
2019-05-19T20:35:17.434Z,65.90
2019-05-19T20:39:24.356Z,65.80
2019-05-19T20:43:31.315Z,65.80
2019-05-19T20:47:38.130Z,68.60
2019-05-19T20:51:45.359Z,76.30
2019-05-19T20:55:52.291Z,78.00
2019-05-19T21:00:00.096Z,71.30
2019-05-19T21:04:06.893Z,68.00
2019-05-19T21:08:13.715Z,72.90
2019-05-19T21:12:20.539Z,78.60
2019-05-19T21:16:28.349Z,73.00
2019-05-19T21:20:48.488Z,69.10
2019-05-19T21:24:55.519Z,67.90
2019-05-19T21:29:02.409Z,67.70
2019-05-19T21:33:10.790Z,67.50
2019-05-19T21:37:17.883Z,67.50
2019-05-19T21:41:24.608Z,67.60
2019-05-19T21:45:31.470Z,71.40
2019-05-19T21:49:39.471Z,69.40
2019-05-19T21:53:48.145Z,68.30
2019-05-19T21:57:54.958Z,68.10
2019-05-19T22:02:03.779Z,68.50
2019-05-19T22:06:10.694Z,75.00
2019-05-19T22:10:17.646Z,70.40
2019-05-19T22:14:24.452Z,69.10
2019-05-19T22:18:35.747Z,68.80
2019-05-19T22:22:42.557Z,69.80
2019-05-19T22:26:49.648Z,69.10
2019-05-19T22:30:56.648Z,69.10
2019-05-19T22:35:03.551Z,69.30
2019-05-19T22:39:10.608Z,69.40
2019-05-19T22:43:17.490Z,69.50
2019-05-19T22:47:24.448Z,69.60
2019-05-19T22:51:32.936Z,69.70
2019-05-19T22:55:40.670Z,69.80
2019-05-19T22:59:50.216Z,70.00
2019-05-19T23:03:57.967Z,70.00
2019-05-19T23:08:08.246Z,70.00
2019-05-19T23:12:15.229Z,70.20
2019-05-19T23:16:23.754Z,70.10
2019-05-19T23:20:32.151Z,70.40
2019-05-19T23:24:39.064Z,70.40
2019-05-19T23:28:46.259Z,70.50
2019-05-19T23:32:53.041Z,70.30
2019-05-19T23:36:59.840Z,71.50
2019-05-19T23:41:06.669Z,70.80
2019-05-19T23:45:14.579Z,70.70
2019-05-19T23:49:21.368Z,70.80
2019-05-19T23:53:29.413Z,70.80
2019-05-19T23:57:36.208Z,70.90
